sensor_id;sensor_type;location;lat;lon;timestamp;P1;durP1;ratioP1;P2;durP2;ratioP2
45007;SDS011;30743;52.008;5.644;2023-04-25T00:02:24;6.82;;;2.13;;
45007;SDS011;30743;52.008;5.644;2023-04-25T00:04:50;7.28;;;2.05;;
45007;SDS011;30743;52.008;5.644;2023-04-25T00:07:15;7.93;;;2.25;;
45007;SDS011;30743;52.008;5.644;2023-04-25T00:09:41;8.73;;;2.17;;
45007;SDS011;30743;52.008;5.644;2023-04-25T00:12:07;16.83;;;2.58;;
45007;SDS011;30743;52.008;5.644;2023-04-25T00:14:33;7.72;;;2.20;;
45007;SDS011;30743;52.008;5.644;2023-04-25T00:17:00;4.88;;;2.15;;
45007;SDS011;30743;52.008;5.644;2023-04-25T00:19:26;8.55;;;2.33;;
45007;SDS011;30743;52.008;5.644;2023-04-25T00:21:53;13.25;;;2.60;;
45007;SDS011;30743;52.008;5.644;2023-04-25T00:24:22;6.70;;;2.60;;
45007;SDS011;30743;52.008;5.644;2023-04-25T00:26:48;9.27;;;2.22;;
45007;SDS011;30743;52.008;5.644;2023-04-25T00:29:13;7.00;;;1.92;;
45007;SDS011;30743;52.008;5.644;2023-04-25T00:31:39;5.78;;;2.03;;
45007;SDS011;30743;52.008;5.644;2023-04-25T00:34:05;4.60;;;2.00;;
45007;SDS011;30743;52.008;5.644;2023-04-25T00:36:31;6.03;;;2.13;;
45007;SDS011;30743;52.008;5.644;2023-04-25T00:38:57;8.48;;;2.65;;
45007;SDS011;30743;52.008;5.644;2023-04-25T00:41:22;11.07;;;2.70;;
45007;SDS011;30743;52.008;5.644;2023-04-25T00:43:50;7.40;;;2.35;;
45007;SDS011;30743;52.008;5.644;2023-04-25T00:46:16;11.80;;;3.00;;
45007;SDS011;30743;52.008;5.644;2023-04-25T00:48:42;11.25;;;2.92;;
45007;SDS011;30743;52.008;5.644;2023-04-25T00:51:07;9.68;;;2.60;;
45007;SDS011;30743;52.008;5.644;2023-04-25T00:53:36;13.68;;;3.50;;
45007;SDS011;30743;52.008;5.644;2023-04-25T00:56:02;11.13;;;3.10;;
45007;SDS011;30743;52.008;5.644;2023-04-25T00:58:27;12.35;;;3.35;;
45007;SDS011;30743;52.008;5.644;2023-04-25T01:00:53;12.05;;;3.42;;
45007;SDS011;30743;52.008;5.644;2023-04-25T01:03:19;5.60;;;2.53;;
45007;SDS011;30743;52.008;5.644;2023-04-25T01:05:45;10.93;;;3.42;;
45007;SDS011;30743;52.008;5.644;2023-04-25T01:08:12;13.73;;;2.92;;
45007;SDS011;30743;52.008;5.644;2023-04-25T01:10:38;10.68;;;3.38;;
45007;SDS011;30743;52.008;5.644;2023-04-25T01:13:04;11.13;;;3.38;;
45007;SDS011;30743;52.008;5.644;2023-04-25T01:15:30;9.77;;;2.88;;
45007;SDS011;30743;52.008;5.644;2023-04-25T01:17:56;9.77;;;4.05;;
45007;SDS011;30743;52.008;5.644;2023-04-25T01:20:23;10.73;;;3.25;;
45007;SDS011;30743;52.008;5.644;2023-04-25T01:22:50;9.77;;;2.65;;
45007;SDS011;30743;52.008;5.644;2023-04-25T01:25:16;11.55;;;4.25;;
45007;SDS011;30743;52.008;5.644;2023-04-25T01:27:42;10.05;;;3.80;;
45007;SDS011;30743;52.008;5.644;2023-04-25T01:30:08;5.38;;;2.50;;
45007;SDS011;30743;52.008;5.644;2023-04-25T01:32:34;10.13;;;2.90;;
45007;SDS011;30743;52.008;5.644;2023-04-25T01:35:06;6.93;;;2.72;;
45007;SDS011;30743;52.008;5.644;2023-04-25T01:37:37;10.30;;;2.88;;
45007;SDS011;30743;52.008;5.644;2023-04-25T01:40:07;8.90;;;3.00;;
45007;SDS011;30743;52.008;5.644;2023-04-25T01:42:34;10.88;;;3.22;;
45007;SDS011;30743;52.008;5.644;2023-04-25T01:45:02;10.32;;;3.00;;
45007;SDS011;30743;52.008;5.644;2023-04-25T01:47:28;8.90;;;2.97;;
45007;SDS011;30743;52.008;5.644;2023-04-25T01:49:53;11.43;;;2.80;;
45007;SDS011;30743;52.008;5.644;2023-04-25T01:52:19;11.45;;;2.78;;
45007;SDS011;30743;52.008;5.644;2023-04-25T01:54:45;8.25;;;2.65;;
45007;SDS011;30743;52.008;5.644;2023-04-25T01:57:11;10.27;;;2.78;;
45007;SDS011;30743;52.008;5.644;2023-04-25T01:59:37;8.32;;;2.33;;
45007;SDS011;30743;52.008;5.644;2023-04-25T02:02:03;10.65;;;3.03;;
45007;SDS011;30743;52.008;5.644;2023-04-25T02:04:32;8.07;;;2.53;;
45007;SDS011;30743;52.008;5.644;2023-04-25T02:06:57;10.02;;;2.70;;
45007;SDS011;30743;52.008;5.644;2023-04-25T02:09:23;9.57;;;3.33;;
45007;SDS011;30743;52.008;5.644;2023-04-25T02:11:49;8.25;;;2.45;;
45007;SDS011;30743;52.008;5.644;2023-04-25T02:14:15;8.00;;;2.50;;
45007;SDS011;30743;52.008;5.644;2023-04-25T02:16:40;10.50;;;3.42;;
45007;SDS011;30743;52.008;5.644;2023-04-25T02:19:08;7.55;;;2.10;;
45007;SDS011;30743;52.008;5.644;2023-04-25T02:21:35;9.90;;;2.58;;
45007;SDS011;30743;52.008;5.644;2023-04-25T02:24:00;6.30;;;2.28;;
45007;SDS011;30743;52.008;5.644;2023-04-25T02:26:26;10.65;;;2.63;;
45007;SDS011;30743;52.008;5.644;2023-04-25T02:28:52;8.30;;;2.42;;
45007;SDS011;30743;52.008;5.644;2023-04-25T02:31:17;11.63;;;2.60;;
45007;SDS011;30743;52.008;5.644;2023-04-25T02:33:43;8.77;;;2.25;;
45007;SDS011;30743;52.008;5.644;2023-04-25T02:36:09;9.23;;;2.35;;
45007;SDS011;30743;52.008;5.644;2023-04-25T02:38:35;10.10;;;2.47;;
45007;SDS011;30743;52.008;5.644;2023-04-25T02:41:00;8.65;;;3.10;;
45007;SDS011;30743;52.008;5.644;2023-04-25T02:43:26;6.25;;;2.33;;
45007;SDS011;30743;52.008;5.644;2023-04-25T02:45:51;13.18;;;3.53;;
45007;SDS011;30743;52.008;5.644;2023-04-25T02:48:17;11.35;;;2.53;;
45007;SDS011;30743;52.008;5.644;2023-04-25T02:50:42;9.25;;;2.97;;
45007;SDS011;30743;52.008;5.644;2023-04-25T02:53:08;10.63;;;2.72;;
45007;SDS011;30743;52.008;5.644;2023-04-25T02:55:34;8.75;;;2.78;;
45007;SDS011;30743;52.008;5.644;2023-04-25T02:57:59;8.32;;;2.63;;
45007;SDS011;30743;52.008;5.644;2023-04-25T03:00:25;8.88;;;2.70;;
45007;SDS011;30743;52.008;5.644;2023-04-25T03:02:50;12.02;;;2.90;;
45007;SDS011;30743;52.008;5.644;2023-04-25T03:05:16;10.80;;;2.75;;
45007;SDS011;30743;52.008;5.644;2023-04-25T03:07:42;12.57;;;2.30;;
45007;SDS011;30743;52.008;5.644;2023-04-25T03:10:08;14.20;;;3.35;;
45007;SDS011;30743;52.008;5.644;2023-04-25T03:12:34;9.43;;;2.60;;
45007;SDS011;30743;52.008;5.644;2023-04-25T03:15:00;6.82;;;2.60;;
45007;SDS011;30743;52.008;5.644;2023-04-25T03:17:26;12.70;;;2.67;;
45007;SDS011;30743;52.008;5.644;2023-04-25T03:19:51;7.72;;;2.20;;
45007;SDS011;30743;52.008;5.644;2023-04-25T03:22:17;11.75;;;2.85;;
45007;SDS011;30743;52.008;5.644;2023-04-25T03:24:42;7.75;;;2.90;;
45007;SDS011;30743;52.008;5.644;2023-04-25T03:27:08;12.35;;;3.10;;
45007;SDS011;30743;52.008;5.644;2023-04-25T03:29:34;6.18;;;2.28;;
45007;SDS011;30743;52.008;5.644;2023-04-25T03:31:59;12.02;;;2.60;;
45007;SDS011;30743;52.008;5.644;2023-04-25T03:34:25;9.07;;;2.22;;
45007;SDS011;30743;52.008;5.644;2023-04-25T03:36:51;11.88;;;2.50;;
45007;SDS011;30743;52.008;5.644;2023-04-25T03:39:16;8.68;;;2.65;;
45007;SDS011;30743;52.008;5.644;2023-04-25T03:41:42;5.28;;;2.05;;
45007;SDS011;30743;52.008;5.644;2023-04-25T03:44:07;6.85;;;2.33;;
45007;SDS011;30743;52.008;5.644;2023-04-25T03:46:33;5.82;;;1.92;;
45007;SDS011;30743;52.008;5.644;2023-04-25T03:48:58;8.63;;;2.30;;
45007;SDS011;30743;52.008;5.644;2023-04-25T03:51:24;9.82;;;2.45;;
45007;SDS011;30743;52.008;5.644;2023-04-25T03:53:51;6.38;;;2.45;;
45007;SDS011;30743;52.008;5.644;2023-04-25T03:56:17;9.20;;;2.53;;
45007;SDS011;30743;52.008;5.644;2023-04-25T03:58:43;7.07;;;2.45;;
45007;SDS011;30743;52.008;5.644;2023-04-25T04:01:09;7.95;;;2.58;;
45007;SDS011;30743;52.008;5.644;2023-04-25T04:03:35;5.47;;;2.05;;
45007;SDS011;30743;52.008;5.644;2023-04-25T04:06:01;6.53;;;2.65;;
45007;SDS011;30743;52.008;5.644;2023-04-25T04:08:33;12.77;;;3.35;;
45007;SDS011;30743;52.008;5.644;2023-04-25T04:10:59;7.63;;;3.03;;
45007;SDS011;30743;52.008;5.644;2023-04-25T04:13:25;9.15;;;3.35;;
45007;SDS011;30743;52.008;5.644;2023-04-25T04:15:52;8.65;;;2.97;;
45007;SDS011;30743;52.008;5.644;2023-04-25T04:18:17;9.00;;;2.85;;
45007;SDS011;30743;52.008;5.644;2023-04-25T04:20:43;10.15;;;3.00;;
45007;SDS011;30743;52.008;5.644;2023-04-25T04:23:08;7.97;;;2.97;;
45007;SDS011;30743;52.008;5.644;2023-04-25T04:25:34;10.95;;;2.63;;
45007;SDS011;30743;52.008;5.644;2023-04-25T04:28:00;9.65;;;3.40;;
45007;SDS011;30743;52.008;5.644;2023-04-25T04:30:26;12.15;;;5.05;;
45007;SDS011;30743;52.008;5.644;2023-04-25T04:32:54;7.15;;;2.70;;
45007;SDS011;30743;52.008;5.644;2023-04-25T04:35:21;14.93;;;2.90;;
45007;SDS011;30743;52.008;5.644;2023-04-25T04:37:47;7.18;;;2.35;;
45007;SDS011;30743;52.008;5.644;2023-04-25T04:40:13;10.00;;;2.50;;
45007;SDS011;30743;52.008;5.644;2023-04-25T04:42:41;9.95;;;3.20;;
45007;SDS011;30743;52.008;5.644;2023-04-25T04:45:07;8.05;;;2.53;;
45007;SDS011;30743;52.008;5.644;2023-04-25T04:47:33;7.63;;;2.25;;
45007;SDS011;30743;52.008;5.644;2023-04-25T04:50:01;8.20;;;2.42;;
45007;SDS011;30743;52.008;5.644;2023-04-25T04:52:27;7.72;;;2.35;;
45007;SDS011;30743;52.008;5.644;2023-04-25T04:54:53;8.38;;;2.45;;
45007;SDS011;30743;52.008;5.644;2023-04-25T04:57:19;9.23;;;2.20;;
45007;SDS011;30743;52.008;5.644;2023-04-25T04:59:44;8.35;;;1.83;;
45007;SDS011;30743;52.008;5.644;2023-04-25T05:02:10;5.30;;;2.05;;
45007;SDS011;30743;52.008;5.644;2023-04-25T05:04:36;4.97;;;2.10;;
45007;SDS011;30743;52.008;5.644;2023-04-25T05:07:01;5.50;;;2.05;;
45007;SDS011;30743;52.008;5.644;2023-04-25T05:09:27;13.38;;;2.35;;
45007;SDS011;30743;52.008;5.644;2023-04-25T05:11:52;6.78;;;2.22;;
45007;SDS011;30743;52.008;5.644;2023-04-25T05:14:18;7.72;;;1.92;;
45007;SDS011;30743;52.008;5.644;2023-04-25T05:16:44;8.88;;;1.95;;
45007;SDS011;30743;52.008;5.644;2023-04-25T05:19:09;7.18;;;1.92;;
45007;SDS011;30743;52.008;5.644;2023-04-25T05:21:35;8.55;;;1.92;;
45007;SDS011;30743;52.008;5.644;2023-04-25T05:24:01;7.32;;;2.05;;
45007;SDS011;30743;52.008;5.644;2023-04-25T05:26:26;6.85;;;2.05;;
45007;SDS011;30743;52.008;5.644;2023-04-25T05:28:55;5.95;;;1.88;;
45007;SDS011;30743;52.008;5.644;2023-04-25T05:31:24;7.53;;;2.28;;
45007;SDS011;30743;52.008;5.644;2023-04-25T05:33:50;8.82;;;2.70;;
45007;SDS011;30743;52.008;5.644;2023-04-25T05:36:17;9.82;;;2.33;;
45007;SDS011;30743;52.008;5.644;2023-04-25T05:38:43;5.28;;;1.80;;
45007;SDS011;30743;52.008;5.644;2023-04-25T05:41:09;7.20;;;2.10;;
45007;SDS011;30743;52.008;5.644;2023-04-25T05:43:35;7.88;;;2.15;;
45007;SDS011;30743;52.008;5.644;2023-04-25T05:46:00;7.68;;;1.95;;
45007;SDS011;30743;52.008;5.644;2023-04-25T05:48:26;6.55;;;1.73;;
45007;SDS011;30743;52.008;5.644;2023-04-25T05:50:51;7.53;;;1.70;;
45007;SDS011;30743;52.008;5.644;2023-04-25T05:53:17;11.55;;;2.15;;
45007;SDS011;30743;52.008;5.644;2023-04-25T05:55:44;8.85;;;2.05;;
45007;SDS011;30743;52.008;5.644;2023-04-25T05:58:09;5.75;;;1.77;;
45007;SDS011;30743;52.008;5.644;2023-04-25T06:00:35;7.35;;;1.80;;
45007;SDS011;30743;52.008;5.644;2023-04-25T06:03:01;4.15;;;1.58;;
45007;SDS011;30743;52.008;5.644;2023-04-25T06:05:26;5.38;;;1.65;;
45007;SDS011;30743;52.008;5.644;2023-04-25T06:07:52;5.30;;;2.08;;
45007;SDS011;30743;52.008;5.644;2023-04-25T06:10:17;5.65;;;1.52;;
45007;SDS011;30743;52.008;5.644;2023-04-25T06:12:43;6.30;;;1.60;;
45007;SDS011;30743;52.008;5.644;2023-04-25T06:15:09;4.55;;;1.38;;
45007;SDS011;30743;52.008;5.644;2023-04-25T06:17:35;6.20;;;1.50;;
45007;SDS011;30743;52.008;5.644;2023-04-25T06:20:01;8.80;;;2.00;;
45007;SDS011;30743;52.008;5.644;2023-04-25T06:22:27;4.00;;;1.40;;
45007;SDS011;30743;52.008;5.644;2023-04-25T06:24:52;6.00;;;1.45;;
45007;SDS011;30743;52.008;5.644;2023-04-25T06:27:17;5.05;;;1.50;;
45007;SDS011;30743;52.008;5.644;2023-04-25T06:29:43;5.65;;;1.48;;
45007;SDS011;30743;52.008;5.644;2023-04-25T06:32:09;5.45;;;1.88;;
45007;SDS011;30743;52.008;5.644;2023-04-25T06:34:34;5.13;;;2.05;;
45007;SDS011;30743;52.008;5.644;2023-04-25T06:37:00;5.25;;;1.58;;
45007;SDS011;30743;52.008;5.644;2023-04-25T06:39:25;5.97;;;1.75;;
45007;SDS011;30743;52.008;5.644;2023-04-25T06:41:51;4.75;;;1.30;;
45007;SDS011;30743;52.008;5.644;2023-04-25T06:44:16;5.70;;;1.52;;
45007;SDS011;30743;52.008;5.644;2023-04-25T06:46:42;7.25;;;1.60;;
45007;SDS011;30743;52.008;5.644;2023-04-25T06:49:07;10.30;;;2.30;;
45007;SDS011;30743;52.008;5.644;2023-04-25T06:51:33;11.00;;;1.85;;
45007;SDS011;30743;52.008;5.644;2023-04-25T06:53:58;5.40;;;1.60;;
45007;SDS011;30743;52.008;5.644;2023-04-25T06:56:24;5.05;;;1.45;;
45007;SDS011;30743;52.008;5.644;2023-04-25T06:58:50;5.80;;;1.27;;
45007;SDS011;30743;52.008;5.644;2023-04-25T07:01:15;7.55;;;1.58;;
45007;SDS011;30743;52.008;5.644;2023-04-25T07:03:41;5.35;;;1.58;;
45007;SDS011;30743;52.008;5.644;2023-04-25T07:06:07;8.00;;;1.30;;
45007;SDS011;30743;52.008;5.644;2023-04-25T07:08:32;6.20;;;1.60;;
45007;SDS011;30743;52.008;5.644;2023-04-25T07:10:59;6.45;;;1.73;;
45007;SDS011;30743;52.008;5.644;2023-04-25T07:13:24;6.30;;;1.20;;
45007;SDS011;30743;52.008;5.644;2023-04-25T07:15:50;5.95;;;1.45;;
45007;SDS011;30743;52.008;5.644;2023-04-25T07:18:15;9.00;;;1.60;;
45007;SDS011;30743;52.008;5.644;2023-04-25T07:20:41;7.88;;;1.65;;
45007;SDS011;30743;52.008;5.644;2023-04-25T07:23:06;5.30;;;1.42;;
45007;SDS011;30743;52.008;5.644;2023-04-25T07:25:32;5.13;;;1.27;;
45007;SDS011;30743;52.008;5.644;2023-04-25T07:27:57;5.15;;;1.80;;
45007;SDS011;30743;52.008;5.644;2023-04-25T07:30:23;8.93;;;1.40;;
45007;SDS011;30743;52.008;5.644;2023-04-25T07:32:49;3.85;;;1.13;;
45007;SDS011;30743;52.008;5.644;2023-04-25T07:35:15;9.73;;;1.67;;
45007;SDS011;30743;52.008;5.644;2023-04-25T07:37:41;6.38;;;1.40;;
45007;SDS011;30743;52.008;5.644;2023-04-25T07:40:08;3.85;;;1.23;;
45007;SDS011;30743;52.008;5.644;2023-04-25T07:42:34;5.03;;;1.10;;
45007;SDS011;30743;52.008;5.644;2023-04-25T07:45:00;5.68;;;1.15;;
45007;SDS011;30743;52.008;5.644;2023-04-25T07:47:26;5.72;;;1.40;;
45007;SDS011;30743;52.008;5.644;2023-04-25T07:49:51;4.97;;;1.08;;
45007;SDS011;30743;52.008;5.644;2023-04-25T07:52:17;7.88;;;1.67;;
45007;SDS011;30743;52.008;5.644;2023-04-25T07:54:43;4.32;;;1.08;;
45007;SDS011;30743;52.008;5.644;2023-04-25T07:57:08;5.85;;;1.75;;
45007;SDS011;30743;52.008;5.644;2023-04-25T07:59:34;6.57;;;1.20;;
45007;SDS011;30743;52.008;5.644;2023-04-25T08:02:00;8.27;;;1.40;;
45007;SDS011;30743;52.008;5.644;2023-04-25T08:04:26;5.57;;;1.10;;
45007;SDS011;30743;52.008;5.644;2023-04-25T08:06:52;4.95;;;1.33;;
45007;SDS011;30743;52.008;5.644;2023-04-25T08:09:18;4.82;;;0.95;;
45007;SDS011;30743;52.008;5.644;2023-04-25T08:11:44;5.55;;;1.33;;
45007;SDS011;30743;52.008;5.644;2023-04-25T08:14:11;6.38;;;1.25;;
45007;SDS011;30743;52.008;5.644;2023-04-25T08:16:37;12.13;;;3.08;;
45007;SDS011;30743;52.008;5.644;2023-04-25T08:19:02;8.13;;;1.20;;
45007;SDS011;30743;52.008;5.644;2023-04-25T08:21:28;7.20;;;2.20;;
45007;SDS011;30743;52.008;5.644;2023-04-25T08:23:54;4.10;;;1.10;;
45007;SDS011;30743;52.008;5.644;2023-04-25T08:26:20;7.47;;;1.50;;
45007;SDS011;30743;52.008;5.644;2023-04-25T08:28:45;4.35;;;1.05;;
45007;SDS011;30743;52.008;5.644;2023-04-25T08:31:11;6.95;;;1.15;;
45007;SDS011;30743;52.008;5.644;2023-04-25T08:33:37;9.70;;;1.10;;
45007;SDS011;30743;52.008;5.644;2023-04-25T08:36:02;4.63;;;1.00;;
45007;SDS011;30743;52.008;5.644;2023-04-25T08:38:28;3.85;;;1.05;;
45007;SDS011;30743;52.008;5.644;2023-04-25T08:40:54;4.93;;;1.10;;
45007;SDS011;30743;52.008;5.644;2023-04-25T08:43:20;4.60;;;1.00;;
45007;SDS011;30743;52.008;5.644;2023-04-25T08:45:48;4.13;;;1.10;;
45007;SDS011;30743;52.008;5.644;2023-04-25T08:48:14;4.07;;;0.90;;
45007;SDS011;30743;52.008;5.644;2023-04-25T08:50:51;4.53;;;0.80;;
45007;SDS011;30743;52.008;5.644;2023-04-25T08:53:22;3.35;;;0.80;;
45007;SDS011;30743;52.008;5.644;2023-04-25T08:55:52;4.88;;;0.80;;
45007;SDS011;30743;52.008;5.644;2023-04-25T08:58:19;4.13;;;1.10;;
45007;SDS011;30743;52.008;5.644;2023-04-25T09:00:48;3.05;;;0.82;;
45007;SDS011;30743;52.008;5.644;2023-04-25T09:05:41;3.83;;;1.10;;
45007;SDS011;30743;52.008;5.644;2023-04-25T09:08:07;3.83;;;0.90;;
45007;SDS011;30743;52.008;5.644;2023-04-25T09:10:32;8.05;;;1.10;;
45007;SDS011;30743;52.008;5.644;2023-04-25T09:15:47;4.20;;;0.90;;
45007;SDS011;30743;52.008;5.644;2023-04-25T09:18:21;6.43;;;0.80;;
45007;SDS011;30743;52.008;5.644;2023-04-25T09:20:49;3.55;;;0.90;;
45007;SDS011;30743;52.008;5.644;2023-04-25T09:23:14;4.47;;;1.00;;
45007;SDS011;30743;52.008;5.644;2023-04-25T09:25:40;4.07;;;1.00;;
45007;SDS011;30743;52.008;5.644;2023-04-25T09:28:07;4.18;;;1.00;;
45007;SDS011;30743;52.008;5.644;2023-04-25T09:30:34;4.35;;;0.80;;
45007;SDS011;30743;52.008;5.644;2023-04-25T09:33:07;7.18;;;1.00;;
45007;SDS011;30743;52.008;5.644;2023-04-25T09:35:35;3.45;;;0.82;;
45007;SDS011;30743;52.008;5.644;2023-04-25T09:38:09;4.35;;;1.30;;
45007;SDS011;30743;52.008;5.644;2023-04-25T09:40:39;5.25;;;0.70;;
45007;SDS011;30743;52.008;5.644;2023-04-25T09:43:25;2.55;;;0.85;;
45007;SDS011;30743;52.008;5.644;2023-04-25T09:45:53;2.70;;;0.73;;
45007;SDS011;30743;52.008;5.644;2023-04-25T09:48:22;2.85;;;0.47;;
45007;SDS011;30743;52.008;5.644;2023-04-25T09:53:34;4.88;;;1.45;;
45007;SDS011;30743;52.008;5.644;2023-04-25T09:56:03;3.53;;;0.90;;
45007;SDS011;30743;52.008;5.644;2023-04-25T09:58:33;3.72;;;0.85;;
45007;SDS011;30743;52.008;5.644;2023-04-25T10:01:01;2.65;;;0.88;;
45007;SDS011;30743;52.008;5.644;2023-04-25T10:03:31;4.32;;;0.90;;
45007;SDS011;30743;52.008;5.644;2023-04-25T10:06:01;4.50;;;0.70;;
45007;SDS011;30743;52.008;5.644;2023-04-25T10:08:31;4.40;;;0.77;;
45007;SDS011;30743;52.008;5.644;2023-04-25T10:11:02;3.97;;;0.73;;
45007;SDS011;30743;52.008;5.644;2023-04-25T10:13:29;4.20;;;0.65;;
45007;SDS011;30743;52.008;5.644;2023-04-25T10:15:57;4.25;;;0.70;;
45007;SDS011;30743;52.008;5.644;2023-04-25T10:18:29;2.53;;;0.80;;
45007;SDS011;30743;52.008;5.644;2023-04-25T10:21:01;2.67;;;0.70;;
45007;SDS011;30743;52.008;5.644;2023-04-25T10:23:29;2.85;;;0.95;;
45007;SDS011;30743;52.008;5.644;2023-04-25T10:25:55;4.65;;;1.00;;
45007;SDS011;30743;52.008;5.644;2023-04-25T10:28:22;4.20;;;0.80;;
45007;SDS011;30743;52.008;5.644;2023-04-25T10:31:01;4.43;;;0.55;;
45007;SDS011;30743;52.008;5.644;2023-04-25T10:33:33;1.50;;;0.50;;
45007;SDS011;30743;52.008;5.644;2023-04-25T10:36:08;2.63;;;0.65;;
45007;SDS011;30743;52.008;5.644;2023-04-25T10:38:35;1.55;;;0.45;;
45007;SDS011;30743;52.008;5.644;2023-04-25T10:41:02;3.70;;;0.80;;
45007;SDS011;30743;52.008;5.644;2023-04-25T10:43:42;2.45;;;0.57;;
45007;SDS011;30743;52.008;5.644;2023-04-25T10:46:19;2.25;;;0.55;;
45007;SDS011;30743;52.008;5.644;2023-04-25T10:48:51;3.97;;;0.63;;
45007;SDS011;30743;52.008;5.644;2023-04-25T10:51:18;4.95;;;0.93;;
45007;SDS011;30743;52.008;5.644;2023-04-25T10:53:46;6.03;;;1.83;;
45007;SDS011;30743;52.008;5.644;2023-04-25T10:56:22;3.28;;;0.90;;
45007;SDS011;30743;52.008;5.644;2023-04-25T10:58:49;5.57;;;0.73;;
45007;SDS011;30743;52.008;5.644;2023-04-25T11:01:15;4.25;;;0.77;;
45007;SDS011;30743;52.008;5.644;2023-04-25T11:03:45;1.60;;;0.80;;
45007;SDS011;30743;52.008;5.644;2023-04-25T11:06:33;4.78;;;0.77;;
45007;SDS011;30743;52.008;5.644;2023-04-25T11:09:13;4.40;;;0.80;;
45007;SDS011;30743;52.008;5.644;2023-04-25T11:11:39;2.03;;;0.60;;
45007;SDS011;30743;52.008;5.644;2023-04-25T11:14:04;2.05;;;0.52;;
45007;SDS011;30743;52.008;5.644;2023-04-25T11:16:30;2.22;;;0.60;;
45007;SDS011;30743;52.008;5.644;2023-04-25T11:18:57;3.97;;;0.65;;
45007;SDS011;30743;52.008;5.644;2023-04-25T11:21:23;5.93;;;0.80;;
45007;SDS011;30743;52.008;5.644;2023-04-25T11:23:51;3.95;;;0.63;;
45007;SDS011;30743;52.008;5.644;2023-04-25T11:26:16;2.63;;;0.60;;
45007;SDS011;30743;52.008;5.644;2023-04-25T11:28:45;3.00;;;0.70;;
45007;SDS011;30743;52.008;5.644;2023-04-25T11:31:11;4.10;;;0.70;;
45007;SDS011;30743;52.008;5.644;2023-04-25T11:33:36;3.15;;;0.82;;
45007;SDS011;30743;52.008;5.644;2023-04-25T11:36:02;4.43;;;0.70;;
45007;SDS011;30743;52.008;5.644;2023-04-25T11:38:27;5.40;;;1.08;;
45007;SDS011;30743;52.008;5.644;2023-04-25T11:40:54;1.83;;;0.50;;
45007;SDS011;30743;52.008;5.644;2023-04-25T11:43:20;3.15;;;0.65;;
45007;SDS011;30743;52.008;5.644;2023-04-25T11:45:47;3.88;;;1.10;;
45007;SDS011;30743;52.008;5.644;2023-04-25T11:48:17;3.05;;;0.70;;
45007;SDS011;30743;52.008;5.644;2023-04-25T11:50:43;2.97;;;0.77;;
45007;SDS011;30743;52.008;5.644;2023-04-25T11:53:09;2.40;;;0.90;;
45007;SDS011;30743;52.008;5.644;2023-04-25T11:55:35;7.32;;;1.35;;
45007;SDS011;30743;52.008;5.644;2023-04-25T11:58:01;2.83;;;0.80;;
45007;SDS011;30743;52.008;5.644;2023-04-25T12:00:29;2.35;;;0.82;;
45007;SDS011;30743;52.008;5.644;2023-04-25T12:02:55;3.42;;;1.25;;
45007;SDS011;30743;52.008;5.644;2023-04-25T12:05:28;3.58;;;0.90;;
45007;SDS011;30743;52.008;5.644;2023-04-25T12:07:55;3.53;;;0.98;;
45007;SDS011;30743;52.008;5.644;2023-04-25T12:10:21;4.88;;;0.98;;
45007;SDS011;30743;52.008;5.644;2023-04-25T12:12:49;1.85;;;0.70;;
45007;SDS011;30743;52.008;5.644;2023-04-25T12:15:18;2.25;;;0.98;;
45007;SDS011;30743;52.008;5.644;2023-04-25T12:17:49;4.75;;;0.70;;
45007;SDS011;30743;52.008;5.644;2023-04-25T12:20:17;3.80;;;1.08;;
45007;SDS011;30743;52.008;5.644;2023-04-25T12:22:45;2.25;;;0.75;;
45007;SDS011;30743;52.008;5.644;2023-04-25T12:25:14;2.92;;;0.82;;
45007;SDS011;30743;52.008;5.644;2023-04-25T12:28:14;4.95;;;1.20;;
45007;SDS011;30743;52.008;5.644;2023-04-25T12:33:18;2.40;;;0.65;;
45007;SDS011;30743;52.008;5.644;2023-04-25T12:35:44;4.60;;;0.73;;
45007;SDS011;30743;52.008;5.644;2023-04-25T12:38:09;3.78;;;0.75;;
45007;SDS011;30743;52.008;5.644;2023-04-25T12:40:35;3.00;;;0.80;;
45007;SDS011;30743;52.008;5.644;2023-04-25T12:43:01;6.20;;;1.00;;
45007;SDS011;30743;52.008;5.644;2023-04-25T12:45:26;2.35;;;0.60;;
45007;SDS011;30743;52.008;5.644;2023-04-25T12:47:52;5.32;;;0.98;;
45007;SDS011;30743;52.008;5.644;2023-04-25T12:50:17;3.00;;;1.00;;
45007;SDS011;30743;52.008;5.644;2023-04-25T12:52:43;3.58;;;1.00;;
45007;SDS011;30743;52.008;5.644;2023-04-25T12:55:08;3.35;;;0.65;;
45007;SDS011;30743;52.008;5.644;2023-04-25T12:57:34;5.72;;;0.88;;
45007;SDS011;30743;52.008;5.644;2023-04-25T12:59:59;3.67;;;0.85;;
45007;SDS011;30743;52.008;5.644;2023-04-25T13:02:25;4.07;;;0.60;;
45007;SDS011;30743;52.008;5.644;2023-04-25T13:04:50;2.75;;;0.50;;
45007;SDS011;30743;52.008;5.644;2023-04-25T13:07:16;1.40;;;0.52;;
45007;SDS011;30743;52.008;5.644;2023-04-25T13:09:42;4.57;;;0.80;;
45007;SDS011;30743;52.008;5.644;2023-04-25T13:12:07;5.72;;;0.80;;
45007;SDS011;30743;52.008;5.644;2023-04-25T13:14:33;2.45;;;0.90;;
45007;SDS011;30743;52.008;5.644;2023-04-25T13:16:58;2.70;;;0.70;;
45007;SDS011;30743;52.008;5.644;2023-04-25T13:19:24;1.45;;;0.50;;
45007;SDS011;30743;52.008;5.644;2023-04-25T13:21:50;4.40;;;0.63;;
45007;SDS011;30743;52.008;5.644;2023-04-25T13:24:16;2.55;;;0.63;;
45007;SDS011;30743;52.008;5.644;2023-04-25T13:26:42;2.92;;;0.60;;
45007;SDS011;30743;52.008;5.644;2023-04-25T13:29:08;1.90;;;0.65;;
45007;SDS011;30743;52.008;5.644;2023-04-25T13:31:33;10.35;;;1.15;;
45007;SDS011;30743;52.008;5.644;2023-04-25T13:33:59;5.45;;;0.70;;
45007;SDS011;30743;52.008;5.644;2023-04-25T13:36:25;1.85;;;0.80;;
45007;SDS011;30743;52.008;5.644;2023-04-25T13:38:51;2.58;;;0.65;;
45007;SDS011;30743;52.008;5.644;2023-04-25T13:41:16;2.10;;;0.68;;
45007;SDS011;30743;52.008;5.644;2023-04-25T13:43:43;2.83;;;0.70;;
45007;SDS011;30743;52.008;5.644;2023-04-25T13:46:10;1.17;;;0.55;;
45007;SDS011;30743;52.008;5.644;2023-04-25T13:48:37;3.10;;;0.63;;
45007;SDS011;30743;52.008;5.644;2023-04-25T13:51:03;2.47;;;0.60;;
45007;SDS011;30743;52.008;5.644;2023-04-25T13:53:28;2.88;;;0.80;;
45007;SDS011;30743;52.008;5.644;2023-04-25T13:55:54;4.20;;;0.70;;
45007;SDS011;30743;52.008;5.644;2023-04-25T13:58:20;3.65;;;0.93;;
45007;SDS011;30743;52.008;5.644;2023-04-25T14:00:45;5.38;;;0.80;;
45007;SDS011;30743;52.008;5.644;2023-04-25T14:03:11;7.28;;;1.17;;
45007;SDS011;30743;52.008;5.644;2023-04-25T14:05:37;4.05;;;0.98;;
45007;SDS011;30743;52.008;5.644;2023-04-25T14:08:03;2.80;;;0.77;;
45007;SDS011;30743;52.008;5.644;2023-04-25T14:10:30;4.97;;;1.10;;
45007;SDS011;30743;52.008;5.644;2023-04-25T14:12:56;2.22;;;0.60;;
45007;SDS011;30743;52.008;5.644;2023-04-25T14:15:21;7.10;;;1.23;;
45007;SDS011;30743;52.008;5.644;2023-04-25T14:17:47;5.05;;;0.90;;
45007;SDS011;30743;52.008;5.644;2023-04-25T14:20:13;4.00;;;0.75;;
45007;SDS011;30743;52.008;5.644;2023-04-25T14:22:38;4.38;;;0.70;;
45007;SDS011;30743;52.008;5.644;2023-04-25T14:25:07;3.80;;;0.80;;
45007;SDS011;30743;52.008;5.644;2023-04-25T14:27:34;5.55;;;0.70;;
45007;SDS011;30743;52.008;5.644;2023-04-25T14:29:59;3.63;;;0.70;;
45007;SDS011;30743;52.008;5.644;2023-04-25T14:32:25;4.18;;;0.90;;
45007;SDS011;30743;52.008;5.644;2023-04-25T14:34:50;3.97;;;1.15;;
45007;SDS011;30743;52.008;5.644;2023-04-25T14:37:16;3.67;;;0.88;;
45007;SDS011;30743;52.008;5.644;2023-04-25T14:39:42;3.15;;;0.65;;
45007;SDS011;30743;52.008;5.644;2023-04-25T14:42:07;4.88;;;0.60;;
45007;SDS011;30743;52.008;5.644;2023-04-25T14:44:33;4.38;;;0.70;;
45007;SDS011;30743;52.008;5.644;2023-04-25T14:46:58;5.72;;;1.40;;
45007;SDS011;30743;52.008;5.644;2023-04-25T14:49:24;5.07;;;0.90;;
45007;SDS011;30743;52.008;5.644;2023-04-25T14:51:49;5.53;;;1.17;;
45007;SDS011;30743;52.008;5.644;2023-04-25T14:54:16;5.65;;;1.10;;